Time;durP1;ratioP1;P1;durP2;ratioP2;P2;SDS_P1;SDS_P2;PMS_P1;PMS_P2;Temp;Humidity;BMP_temperature;BMP_pressure;BME280_temperature;BME280_humidity;BME280_pressure;Samples;Min_cycle;Max_cycle;Signal;HPM_P1;HPM_P2
2022/10/18 00:02:07;;;;;;;16.27;10.98;;;;;;;16.50;81.18;101805.73;1734756;81;21055;-84
2022/10/18 00:04:34;;;;;;;13.55;11.35;;;;;;;16.50;81.24;101813.70;1750953;81;21074;-84
2022/10/18 00:07:01;;;;;;;13.10;10.05;;;;;;;16.51;81.26;101819.91;1766626;81;22306;-84
2022/10/18 00:09:28;;;;;;;18.80;10.28;;;;;;;16.50;81.26;101815.03;1738525;81;21079;-84
2022/10/18 00:11:55;;;;;;;14.95;11.35;;;;;;;16.48;81.40;101815.45;1738254;81;21772;-91
2022/10/18 00:14:22;;;;;;;18.20;11.83;;;;;;;16.52;81.64;101812.41;1737685;81;21095;-90
2022/10/18 00:16:48;;;;;;;12.82;10.15;;;;;;;16.56;81.70;101816.02;1756523;81;21269;-89
2022/10/18 00:19:15;;;;;;;12.65;10.15;;;;;;;16.58;81.74;101820.92;1741320;81;21862;-82
2022/10/18 00:21:42;;;;;;;12.60;10.65;;;;;;;16.59;81.75;101832.92;1738161;81;21074;-83
2022/10/18 00:24:09;;;;;;;14.33;10.00;;;;;;;16.59;81.81;101832.00;1764121;80;21888;-84
2022/10/18 00:26:36;;;;;;;11.90;9.83;;;;;;;16.61;81.85;101830.27;1773478;80;21071;-84
2022/10/18 00:29:05;;;;;;;12.82;9.53;;;;;;;16.64;81.91;101832.54;1757777;80;21091;-84
2022/10/18 00:31:35;;;;;;;13.88;10.10;;;;;;;16.66;81.96;101838.78;1748781;80;21039;-84
2022/10/18 00:34:06;;;;;;;13.08;9.23;;;;;;;16.70;81.98;101839.73;1749053;80;21129;-85
2022/10/18 00:36:33;;;;;;;12.80;9.45;;;;;;;16.73;82.02;101838.46;1757880;80;21767;-84
2022/10/18 00:39:01;;;;;;;9.95;8.95;;;;;;;16.79;82.13;101835.02;1747388;80;21058;-83
2022/10/18 00:41:31;;;;;;;11.22;8.55;;;;;;;16.84;82.12;101839.57;1747991;80;21085;-82
2022/10/18 00:44:15;;;;;;;12.60;9.33;;;;;;;16.89;82.10;101844.54;1748986;80;21234;-83
2022/10/18 00:46:46;;;;;;;10.85;8.58;;;;;;;16.94;82.07;101849.03;1744901;80;21062;-82
2022/10/18 00:49:26;;;;;;;12.23;7.53;;;;;;;16.97;82.08;101845.98;1745429;80;23167;-82
2022/10/18 00:52:06;;;;;;;11.48;7.60;;;;;;;17.01;82.04;101834.97;1756687;80;21077;-83
2022/10/18 00:54:35;;;;;;;9.48;7.05;;;;;;;17.04;82.12;101838.58;1748945;80;21070;-83
2022/10/18 00:57:01;;;;;;;11.73;7.12;;;;;;;17.06;82.12;101831.51;1768300;80;21051;-84
2022/10/18 00:59:28;;;;;;;8.03;6.17;;;;;;;17.09;82.11;101822.22;1736093;80;21635;-83
2022/10/18 01:01:55;;;;;;;9.58;5.25;;;;;;;17.15;82.12;101815.22;1747635;80;22550;-83
2022/10/18 01:04:22;;;;;;;7.12;4.50;;;;;;;17.17;82.12;101818.34;1748967;80;21039;-83
2022/10/18 01:07:03;;;;;;;12.58;5.08;;;;;;;17.21;82.09;101818.88;1746810;80;21366;-82
2022/10/18 01:09:53;;;;;;;4.08;3.67;;;;;;;17.24;82.04;101822.89;1742632;80;21026;-84
2022/10/18 01:12:28;;;;;;;5.90;4.17;;;;;;;17.27;82.00;101821.62;1751191;80;21819;-82
2022/10/18 01:15:30;;;;;;;5.08;3.60;;;;;;;17.31;81.95;101814.58;1762727;80;21732;-82
2022/10/18 01:18:07;;;;;;;3.87;3.02;;;;;;;17.34;81.90;101813.72;1753475;80;21019;-82
2022/10/18 01:21:03;;;;;;;3.33;2.85;;;;;;;17.37;81.88;101816.43;1753362;80;22136;-82
2022/10/18 01:23:55;;;;;;;5.65;2.70;;;;;;;17.29;81.79;101793.27;1713936;83;21261;-83
2022/10/18 01:26:45;;;;;;;3.52;2.42;;;;;;;17.41;81.72;101826.23;1748186;80;21026;-83
2022/10/18 01:29:21;;;;;;;3.12;2.72;;;;;;;17.41;81.64;101825.80;1768898;80;21748;-83
2022/10/18 01:31:51;;;;;;;3.98;2.33;;;;;;;17.41;81.56;101821.80;1779496;80;21562;-81
2022/10/18 01:34:18;;;;;;;4.15;2.22;;;;;;;17.43;81.47;101821.83;1726781;80;21085;-80
2022/10/18 01:36:50;;;;;;;4.08;2.27;;;;;;;17.42;81.42;101829.38;1731161;82;21117;-89
2022/10/18 01:39:27;;;;;;;3.27;2.22;;;;;;;17.41;81.38;101833.78;1761301;81;21564;-89
2022/10/18 01:41:53;;;;;;;3.02;2.08;;;;;;;17.42;81.30;101831.59;1749041;80;21774;-82
2022/10/18 01:44:23;;;;;;;3.40;2.05;;;;;;;17.42;81.25;101834.25;1749857;80;21061;-82
2022/10/18 01:46:54;;;;;;;3.52;2.10;;;;;;;17.42;81.21;101836.03;1779906;80;21563;-81
2022/10/18 01:49:21;;;;;;;4.25;2.40;;;;;;;17.41;81.15;101839.11;1778505;80;21058;-80
2022/10/18 01:51:48;;;;;;;5.83;1.90;;;;;;;17.40;81.15;101824.03;1706137;82;21068;-81
2022/10/18 01:54:26;;;;;;;2.90;2.08;;;;;;;17.41;81.12;101827.57;1760102;80;21727;-81
2022/10/18 01:57:19;;;;;;;2.20;2.00;;;;;;;17.40;81.09;101836.00;1770076;80;21520;-81
2022/10/18 02:00:14;;;;;;;4.30;1.87;;;;;;;17.41;81.13;101834.23;1721357;80;21848;-82
2022/10/18 02:02:58;;;;;;;3.42;2.40;;;;;;;17.39;81.18;101826.66;1779749;80;21627;-82
2022/10/18 02:05:39;;;;;;;7.10;2.20;;;;;;;17.36;81.21;101827.94;1774057;80;25567;-82
2022/10/18 02:08:25;;;;;;;3.58;2.52;;;;;;;17.33;81.27;101828.80;1780296;80;21810;-82
2022/10/18 02:11:07;;;;;;;4.78;2.50;;;;;;;17.29;81.33;101826.97;1772487;80;21101;-82
2022/10/18 02:13:45;;;;;;;6.72;2.40;;;;;;;17.25;81.33;101828.69;1760171;80;21085;-85
2022/10/18 02:16:28;;;;;;;3.75;2.02;;;;;;;17.22;81.38;101821.98;1726072;82;21326;-82
2022/10/18 02:19:29;;;;;;;3.70;2.10;;;;;;;17.20;81.42;101818.84;1720928;80;21123;-81
2022/10/18 02:21:56;;;;;;;3.65;2.30;;;;;;;17.16;81.46;101822.34;1748993;80;21769;-82
2022/10/18 02:24:27;;;;;;;4.83;1.80;;;;;;;17.13;81.46;101828.94;1752954;80;21673;-82
2022/10/18 02:26:54;;;;;;;1.77;1.67;;;;;;;17.08;81.50;101828.44;1762150;80;21585;-82
2022/10/18 02:29:21;;;;;;;5.53;2.17;;;;;;;17.06;81.54;101837.24;1746503;80;21596;-81
2022/10/18 02:31:55;;;;;;;4.70;3.98;;;;;;;17.04;81.58;101844.30;1748991;80;21090;-81
2022/10/18 02:34:43;;;;;;;3.15;2.58;;;;;;;17.02;81.63;101852.25;1742824;81;21887;-82
2022/10/18 02:37:10;;;;;;;5.62;3.30;;;;;;;17.01;81.71;101862.90;1764453;80;21035;-82
2022/10/18 02:39:43;;;;;;;3.42;2.70;;;;;;;16.99;81.72;101861.53;1742979;81;21062;-82
2022/10/18 02:42:10;;;;;;;7.33;5.47;;;;;;;16.98;81.77;101858.84;1747677;81;21258;-81
2022/10/18 02:44:36;;;;;;;5.33;3.52;;;;;;;16.97;81.81;101865.94;1708888;81;21062;-82
2022/10/18 02:47:04;;;;;;;4.87;3.50;;;;;;;16.97;81.87;101882.31;1742901;81;21756;-81
2022/10/18 02:49:31;;;;;;;3.65;2.70;;;;;;;16.93;81.82;101872.49;1729467;81;21039;-81
2022/10/18 02:51:57;;;;;;;4.25;3.30;;;;;;;16.91;81.82;101876.45;1744973;81;21059;-81
2022/10/18 02:54:24;;;;;;;6.78;4.30;;;;;;;16.88;81.81;101874.64;1744081;81;21046;-81
2022/10/18 02:56:51;;;;;;;7.83;3.65;;;;;;;16.86;81.82;101878.16;1742546;81;21042;-81
2022/10/18 02:59:18;;;;;;;3.85;2.80;;;;;;;16.84;81.80;101882.56;1746970;81;22440;-81
2022/10/18 03:01:45;;;;;;;4.25;3.40;;;;;;;16.78;81.75;101872.69;1761172;81;21187;-81
2022/10/18 03:04:11;;;;;;;3.00;2.55;;;;;;;16.76;81.78;101876.16;1756510;81;21635;-81
2022/10/18 03:06:38;;;;;;;6.83;2.20;;;;;;;16.74;81.81;101877.90;1743264;81;21680;-81
2022/10/18 03:09:05;;;;;;;7.45;2.20;;;;;;;16.71;81.84;101882.74;1740311;81;21066;-81
2022/10/18 03:11:32;;;;;;;3.80;1.95;;;;;;;16.69;81.85;101881.82;1748645;81;21734;-80
2022/10/18 03:13:59;;;;;;;4.08;2.10;;;;;;;16.66;81.90;101877.32;1759217;81;21127;-81
2022/10/18 03:16:26;;;;;;;2.30;2.00;;;;;;;16.63;81.83;101888.33;1743013;81;21014;-81
2022/10/18 03:18:53;;;;;;;2.75;1.92;;;;;;;16.61;81.81;101876.78;1730567;81;21042;-81
2022/10/18 03:21:20;;;;;;;2.80;2.10;;;;;;;16.58;81.86;101876.30;1749379;80;21057;-81
2022/10/18 03:23:47;;;;;;;4.12;2.10;;;;;;;16.56;81.80;101875.83;1729340;81;21792;-81
2022/10/18 03:26:13;;;;;;;5.10;2.08;;;;;;;16.54;81.78;101870.47;1730531;81;21018;-81
2022/10/18 03:28:40;;;;;;;5.55;2.10;;;;;;;16.52;81.78;101881.52;1728715;81;21105;-89
2022/10/18 03:31:07;;;;;;;4.22;2.15;;;;;;;16.50;81.78;101883.25;1736257;81;21051;-88
2022/10/18 03:33:34;;;;;;;4.87;2.10;;;;;;;16.48;81.78;101883.22;1753486;81;21011;-89
2022/10/18 03:36:01;;;;;;;2.77;1.50;;;;;;;16.47;81.74;101884.06;1767522;81;22685;-89
2022/10/18 03:38:28;;;;;;;4.87;2.25;;;;;;;16.46;81.77;101876.98;1747434;80;21079;-90
2022/10/18 03:40:55;;;;;;;2.72;1.80;;;;;;;16.44;81.67;101884.03;1738265;81;21161;-89
2022/10/18 03:43:22;;;;;;;6.17;2.00;;;;;;;16.42;81.61;101880.86;1737874;81;21051;-88
2022/10/18 03:45:49;;;;;;;4.87;2.37;;;;;;;16.40;81.65;101885.25;1740800;81;21042;-89
2022/10/18 03:48:15;;;;;;;2.25;1.70;;;;;;;16.39;81.65;101881.71;1753603;81;21738;-88
2022/10/18 03:50:43;;;;;;;4.22;2.05;;;;;;;16.36;81.55;101892.27;1763672;81;21087;-81
2022/10/18 03:53:10;;;;;;;4.17;1.72;;;;;;;16.34;81.58;101892.67;1759430;81;21564;-81
2022/10/18 03:55:37;;;;;;;5.58;2.22;;;;;;;16.33;81.57;101898.88;1747577;80;21085;-83
2022/10/18 03:58:04;;;;;;;6.05;2.20;;;;;;;16.30;81.62;101909.43;1738379;82;21007;-85
2022/10/18 04:00:31;;;;;;;2.83;2.00;;;;;;;16.29;81.62;101900.98;1759953;81;21738;-82
2022/10/18 04:02:57;;;;;;;3.25;2.00;;;;;;;16.30;81.68;101895.70;1741789;81;21029;-84
2022/10/18 04:05:26;;;;;;;5.55;2.12;;;;;;;16.29;81.63;101908.55;1743223;80;21055;-82
2022/10/18 04:07:53;;;;;;;2.58;1.90;;;;;;;16.29;81.65;101923.16;1761568;80;21046;-81
2022/10/18 04:10:20;;;;;;;4.22;2.10;;;;;;;16.29;81.63;101924.89;1702274;82;21095;-80
2022/10/18 04:12:47;;;;;;;4.45;2.37;;;;;;;16.28;81.66;101920.46;1739979;81;22587;-80
2022/10/18 04:15:14;;;;;;;3.05;1.98;;;;;;;16.27;81.69;101923.56;1711553;82;21146;-85
2022/10/18 04:17:41;;;;;;;3.83;2.10;;;;;;;16.27;81.64;101914.67;1733927;82;21125;-82
2022/10/18 04:20:08;;;;;;;3.37;2.20;;;;;;;16.24;81.63;101910.64;1747852;81;21043;-81
2022/10/18 04:22:35;;;;;;;4.10;1.90;;;;;;;16.23;81.57;101914.15;1764708;80;21093;-81
2022/10/18 04:25:02;;;;;;;2.83;2.17;;;;;;;16.18;81.55;101907.84;1757224;80;21763;-86
2022/10/18 04:27:29;;;;;;;2.40;2.20;;;;;;;16.13;81.58;101920.59;1747160;80;21044;-83
2022/10/18 04:29:56;;;;;;;8.83;2.42;;;;;;;16.12;81.58;101912.59;1750937;81;21063;-84
2022/10/18 04:32:26;;;;;;;3.70;2.37;;;;;;;16.09;81.64;101915.20;1769303;81;21055;-83
2022/10/18 04:34:53;;;;;;;4.53;2.15;;;;;;;16.08;81.69;101918.71;1738328;81;21040;-84
2022/10/18 04:37:19;;;;;;;4.20;2.50;;;;;;;16.07;81.69;101929.78;1757528;80;21812;-81
2022/10/18 04:39:47;;;;;;;2.75;2.40;;;;;;;16.05;81.70;101938.59;1747430;81;21746;-83
2022/10/18 04:42:14;;;;;;;5.22;2.90;;;;;;;16.02;81.65;101944.70;1755752;81;21043;-82
2022/10/18 04:44:41;;;;;;;6.25;2.65;;;;;;;16.00;81.64;101950.86;1765717;81;21165;-83
2022/10/18 04:47:07;;;;;;;3.12;2.40;;;;;;;15.98;81.70;101948.61;1769542;80;21082;-84
2022/10/18 04:49:34;;;;;;;5.75;3.52;;;;;;;15.97;81.68;101940.16;1755594;81;21742;-82
2022/10/18 04:52:01;;;;;;;4.30;3.08;;;;;;;15.93;81.68;101930.82;1741274;81;21090;-82
2022/10/18 04:54:28;;;;;;;4.65;2.65;;;;;;;15.89;81.69;101929.38;1749131;81;21050;-82
2022/10/18 04:56:59;;;;;;;5.60;2.80;;;;;;;15.86;81.72;101930.62;1695327;84;21074;-82
2022/10/18 04:59:26;;;;;;;5.50;2.70;;;;;;;15.84;81.78;101938.58;1716040;82;21073;-82
2022/10/18 05:01:53;;;;;;;3.50;2.50;;;;;;;15.84;81.83;101959.82;1748590;81;21728;-82
2022/10/18 05:04:20;;;;;;;3.80;2.60;;;;;;;15.83;81.77;101968.63;1738225;82;21036;-84
2022/10/18 05:06:47;;;;;;;3.27;2.60;;;;;;;15.79;81.74;101980.05;1739068;82;21636;-85
2022/10/18 05:09:23;;;;;;;4.78;2.50;;;;;;;15.74;81.77;101983.91;1739065;82;21040;-85
2022/10/18 05:11:44;;;;;;;3.77;2.27;;;;;;;15.71;81.94;101970.95;1737335;81;21064;-85
2022/10/18 05:14:31;;;;;;;5.87;2.40;;;;;;;15.71;82.11;101955.95;1760670;81;22179;-86
2022/10/18 05:16:58;;;;;;;8.30;2.72;;;;;;;15.73;82.15;101948.03;1739247;82;21568;-85
2022/10/18 05:19:24;;;;;;;5.08;2.47;;;;;;;15.73;82.24;101952.93;1746877;81;21078;-86
2022/10/18 05:21:51;;;;;;;8.18;2.58;;;;;;;15.76;82.24;101959.16;1769323;81;21245;-86
2022/10/18 05:24:31;;;;;;;4.00;2.50;;;;;;;15.78;82.38;101963.64;1739397;82;21217;-86
2022/10/18 05:26:58;;;;;;;7.05;2.80;;;;;;;15.81;82.34;101963.72;1715555;82;21807;-86
2022/10/18 05:29:25;;;;;;;4.92;2.80;;;;;;;15.85;82.34;101962.03;1736765;82;21039;-86
2022/10/18 05:32:24;;;;;;;5.05;2.77;;;;;;;15.87;82.39;101956.33;1736524;82;21125;-86
2022/10/18 05:34:51;;;;;;;7.85;3.12;;;;;;;15.88;82.30;101958.13;1786255;80;21066;-86
2022/10/18 05:37:18;;;;;;;4.25;3.45;;;;;;;15.91;82.28;101959.51;1786678;80;21559;-86
2022/10/18 05:40:00;;;;;;;5.20;3.17;;;;;;;15.92;82.36;101971.50;1786499;80;21746;-86
2022/10/18 05:42:27;;;;;;;5.65;2.80;;;;;;;15.96;82.31;101980.88;1786018;80;21619;-86
2022/10/18 05:44:54;;;;;;;9.03;3.30;;;;;;;15.96;82.22;101978.22;1786644;80;21022;-86
2022/10/18 05:47:21;;;;;;;6.65;3.15;;;;;;;15.97;82.32;101976.89;1782861;80;21050;-91
2022/10/18 05:49:48;;;;;;;4.37;3.08;;;;;;;15.97;82.21;101980.88;1774718;80;21566;-91
2022/10/18 05:52:16;;;;;;;4.85;3.25;;;;;;;15.97;82.21;101974.68;1749397;82;21738;-86
2022/10/18 05:54:46;;;;;;;7.83;3.12;;;;;;;15.99;82.23;101971.22;1749403;82;21543;-91
2022/10/18 05:57:25;;;;;;;5.92;2.95;;;;;;;16.01;82.26;101968.16;1749363;82;21051;-86
2022/10/18 05:59:52;;;;;;;7.40;3.08;;;;;;;16.04;82.21;101981.48;1755716;80;21059;-86
2022/10/18 06:02:19;;;;;;;7.42;3.45;;;;;;;16.06;82.15;101978.43;1762482;80;21073;-91
2022/10/18 06:04:46;;;;;;;7.00;3.90;;;;;;;16.09;82.11;101974.53;1759971;80;22577;-91
2022/10/18 06:07:14;;;;;;;4.00;2.83;;;;;;;16.10;82.06;101973.68;1750757;80;21074;-91
2022/10/18 06:09:41;;;;;;;6.40;2.87;;;;;;;16.12;82.08;101961.33;1708011;83;21601;-89
2022/10/18 06:12:11;;;;;;;7.35;3.58;;;;;;;16.17;82.01;101980.45;1771545;80;21654;-86
2022/10/18 06:14:38;;;;;;;9.78;3.25;;;;;;;16.20;81.95;101980.08;1749755;81;21012;-86
2022/10/18 06:17:04;;;;;;;5.92;3.05;;;;;;;16.21;81.92;101992.92;1749980;82;22601;-86
2022/10/18 06:19:32;;;;;;;7.05;3.20;;;;;;;16.22;81.88;101969.05;1749564;82;21054;-91
2022/10/18 06:21:59;;;;;;;4.92;2.95;;;;;;;16.24;81.87;101979.72;1757587;80;21165;-91
2022/10/18 06:24:26;;;;;;;5.28;2.75;;;;;;;16.26;81.78;101985.95;1784535;80;21030;-93
2022/10/18 06:26:57;;;;;;;8.03;2.85;;;;;;;16.26;81.76;101989.50;1766393;80;21025;-92
2022/10/18 06:29:23;;;;;;;7.75;2.72;;;;;;;16.27;81.77;101992.64;1749416;80;21767;-91
2022/10/18 06:31:50;;;;;;;11.50;3.02;;;;;;;16.30;81.77;101994.45;1756902;80;21007;-91
2022/10/18 06:34:17;;;;;;;7.28;3.00;;;;;;;16.30;81.74;101986.04;1750828;80;21127;-91
2022/10/18 06:36:44;;;;;;;7.35;2.55;;;;;;;16.32;81.67;101982.98;1746652;82;21190;-92
2022/10/18 06:39:11;;;;;;;4.97;3.00;;;;;;;16.36;81.64;101985.71;1747114;82;21042;-86
2022/10/18 06:41:38;;;;;;;5.30;2.58;;;;;;;16.37;81.57;101992.80;1715532;82;21770;-86
2022/10/18 06:44:12;;;;;;;51.23;8.18;;;;;;;16.40;81.60;101987.56;1715099;82;21054;-92
2022/10/18 06:46:33;;;;;;;75.65;10.98;;;;;;;16.43;81.51;101995.17;1745604;82;21106;-92
2022/10/18 06:49:02;;;;;;;147.30;19.17;;;;;;;16.47;81.49;101992.14;1740049;82;21028;-92
2022/10/18 06:51:29;;;;;;;82.40;12.70;;;;;;;16.52;81.46;101993.14;1739923;82;21080;-91
2022/10/18 06:53:56;;;;;;;78.12;12.25;;;;;;;16.56;81.33;101995.44;1728922;82;21807;-92
2022/10/18 06:56:23;;;;;;;75.15;10.80;;;;;;;16.58;81.22;101997.25;1759824;81;21074;-91
2022/10/18 06:58:49;;;;;;;15.60;4.20;;;;;;;16.61;81.13;101992.00;1750289;81;21079;-91
2022/10/18 07:01:17;;;;;;;9.58;2.92;;;;;;;16.65;81.00;102004.92;1750703;81;21026;-91
2022/10/18 07:03:44;;;;;;;11.95;3.20;;;;;;;16.68;80.88;102014.27;1747416;81;21050;-91
2022/10/18 07:06:14;;;;;;;6.97;2.90;;;;;;;16.70;80.76;102016.53;1727359;82;21869;-91
2022/10/18 07:08:41;;;;;;;11.83;2.92;;;;;;;16.74;80.69;102014.83;1711697;81;21026;-91
2022/10/18 07:11:08;;;;;;;5.97;2.77;;;;;;;16.76;80.64;102009.11;1716765;83;21100;-91
2022/10/18 07:13:35;;;;;;;8.58;2.70;;;;;;;16.80;80.54;102005.22;1682944;83;21079;-92
2022/10/18 07:16:07;;;;;;;12.43;2.87;;;;;;;16.84;80.46;102011.09;1713105;83;21071;-91
2022/10/18 07:18:35;;;;;;;21.23;4.35;;;;;;;16.88;80.42;102006.73;1716494;83;21836;-92
2022/10/18 07:21:05;;;;;;;15.40;4.08;;;;;;;16.93;80.37;102018.36;1732722;81;21556;-92
2022/10/18 07:23:36;;;;;;;23.57;4.33;;;;;;;16.98;80.31;102021.09;1739859;82;21086;-91
2022/10/18 07:26:20;;;;;;;17.98;3.87;;;;;;;17.03;80.22;102022.09;1739334;81;21553;-91
2022/10/18 07:28:53;;;;;;;12.15;3.52;;;;;;;17.06;80.08;102028.36;1734484;82;21028;-91
2022/10/18 07:31:20;;;;;;;15.43;3.80;;;;;;;17.09;79.89;102023.52;1747545;81;21765;-92
2022/10/18 07:33:47;;;;;;;13.25;3.40;;;;;;;17.12;79.85;102026.25;1738785;81;21044;-91
2022/10/18 07:36:14;;;;;;;15.58;3.25;;;;;;;17.15;79.66;102018.30;1752744;81;21118;-90
2022/10/18 07:38:43;;;;;;;10.63;2.95;;;;;;;17.22;79.71;102020.21;1738357;81;21576;-91
2022/10/18 07:41:12;;;;;;;4.97;2.80;;;;;;;17.32;79.67;102023.03;1738651;81;21079;-91
2022/10/18 07:43:45;;;;;;;9.60;2.83;;;;;;;17.34;79.44;102018.19;1738910;81;21764;-92
2022/10/18 07:46:12;;;;;;;9.50;2.52;;;;;;;17.40;79.30;102020.98;1738727;81;21020;-91
2022/10/18 07:48:39;;;;;;;7.67;3.25;;;;;;;17.43;79.11;102030.33;1755651;81;21079;-92
2022/10/18 07:51:06;;;;;;;8.45;2.58;;;;;;;17.45;78.95;102029.92;1759035;81;21167;-92
2022/10/18 07:53:33;;;;;;;6.80;3.12;;;;;;;17.48;79.01;102031.76;1759650;81;21599;-92
2022/10/18 07:56:01;;;;;;;7.08;3.10;;;;;;;17.53;78.90;102037.14;1740289;81;21762;-91
2022/10/18 07:58:28;;;;;;;8.65;2.83;;;;;;;17.55;78.72;102032.33;1738608;81;21066;-92
2022/10/18 08:00:55;;;;;;;5.58;2.87;;;;;;;17.55;78.48;102038.06;1715400;82;21089;-92
2022/10/18 08:03:21;;;;;;;9.33;2.65;;;;;;;17.53;78.27;102034.07;1738449;81;21074;-91
2022/10/18 08:05:53;;;;;;;9.45;2.60;;;;;;;17.48;78.14;102037.08;1750871;81;21050;-91
2022/10/18 08:08:21;;;;;;;10.70;3.22;;;;;;;17.48;78.18;102043.29;1750353;81;21851;-91
2022/10/18 08:10:48;;;;;;;11.53;2.95;;;;;;;17.49;77.97;102044.17;1756192;80;21234;-92
2022/10/18 08:13:15;;;;;;;10.63;3.33;;;;;;;17.47;77.81;102037.53;1753605;81;21074;-91
2022/10/18 08:15:42;;;;;;;6.35;2.75;;;;;;;17.46;77.75;102033.50;1759933;81;21579;-92
2022/10/18 08:18:15;;;;;;;10.55;2.95;;;;;;;17.45;77.56;102026.37;1738912;81;21078;-91
2022/10/18 08:20:43;;;;;;;6.10;2.70;;;;;;;17.45;77.46;102026.37;1760652;81;21774;-91
2022/10/18 08:23:10;;;;;;;6.62;2.67;;;;;;;17.45;77.30;102023.27;1751220;81;21200;-91
2022/10/18 08:25:43;;;;;;;8.68;2.25;;;;;;;17.46;77.21;102024.18;1744726;80;21087;-91
2022/10/18 08:28:12;;;;;;;6.75;2.62;;;;;;;17.47;77.11;102020.22;1712084;82;21050;-91
2022/10/18 08:30:39;;;;;;;8.08;2.47;;;;;;;17.53;77.09;102022.50;1760028;81;21048;-91
2022/10/18 08:33:06;;;;;;;8.68;2.65;;;;;;;17.62;77.12;102016.88;1746456;81;22600;-91
2022/10/18 08:35:33;;;;;;;6.85;2.40;;;;;;;17.71;77.15;102009.94;1750656;81;21568;-91
2022/10/18 08:38:10;;;;;;;6.70;2.90;;;;;;;17.85;77.06;102005.77;1745258;81;21061;-91
2022/10/18 08:40:35;;;;;;;8.23;2.65;;;;;;;17.92;76.82;101999.63;1746775;81;21035;-91
2022/10/18 08:43:22;;;;;;;4.60;1.92;;;;;;;18.00;76.65;102003.31;1764085;81;22446;-92
2022/10/18 08:45:49;;;;;;;7.33;2.17;;;;;;;18.07;76.43;102002.95;1757986;81;21793;-91
2022/10/18 08:48:24;;;;;;;5.50;2.12;;;;;;;18.12;76.22;101997.25;1762460;81;21066;-92
2022/10/18 08:51:02;;;;;;;6.72;2.30;;;;;;;18.15;75.86;102001.72;1756542;81;21074;-85
2022/10/18 08:53:50;;;;;;;10.20;2.30;;;;;;;18.19;75.55;101991.14;1730939;81;21060;-86
2022/10/18 08:56:23;;;;;;;6.28;2.10;;;;;;;18.22;75.44;101991.16;1730029;81;21086;-85
2022/10/18 08:58:48;;;;;;;10.63;2.60;;;;;;;18.32;75.34;102000.61;1739150;81;21772;-85
2022/10/18 09:01:45;;;;;;;5.20;2.17;;;;;;;18.35;74.86;102004.22;1738527;81;21074;-86
2022/10/18 09:04:24;;;;;;;8.15;2.65;;;;;;;18.38;74.70;102004.72;1744188;81;21052;-91
2022/10/18 09:07:17;;;;;;;6.45;2.30;;;;;;;18.40;74.48;102007.84;1738367;81;21078;-91
2022/10/18 09:09:57;;;;;;;8.38;2.30;;;;;;;18.44;74.36;101999.00;1736959;82;22270;-91
2022/10/18 09:12:51;;;;;;;6.12;2.40;;;;;;;18.54;74.19;101995.12;1743717;81;22597;-91
2022/10/18 09:15:43;;;;;;;7.22;2.08;;;;;;;18.65;73.98;101990.80;1768976;81;21054;-85
2022/10/18 09:18:41;;;;;;;7.37;2.30;;;;;;;18.79;73.81;101992.31;1756007;81;21835;-85
2022/10/18 09:21:37;;;;;;;7.90;2.30;;;;;;;18.88;73.22;101988.86;1738369;82;21058;-86
2022/10/18 09:24:50;;;;;;;5.00;2.60;;;;;;;18.91;73.01;101995.58;1738063;82;21058;-86
2022/10/18 09:27:21;;;;;;;9.00;2.95;;;;;;;18.95;72.95;101992.94;1738231;82;21726;-91
2022/10/18 09:30:06;;;;;;;7.62;2.72;;;;;;;18.95;72.56;101980.05;1768912;81;21085;-91
2022/10/18 09:33:16;;;;;;;17.17;8.00;;;;;;;18.91;72.37;101985.79;1713203;80;21050;-91
2022/10/18 09:35:47;;;;;;;11.97;4.28;;;;;;;18.80;71.75;101991.00;1757730;80;21066;-91
2022/10/18 09:38:18;;;;;;;12.93;3.90;;;;;;;18.68;71.55;101985.52;1757236;80;21104;-91
2022/10/18 09:41:05;;;;;;;8.20;2.33;;;;;;;18.65;71.73;101989.47;1760313;80;21787;-91
2022/10/18 09:44:02;;;;;;;13.93;2.77;;;;;;;18.66;71.55;101987.28;1748890;82;21038;-91
2022/10/18 09:46:32;;;;;;;8.20;2.27;;;;;;;18.69;71.60;101984.62;1773759;80;21062;-91
2022/10/18 09:49:03;;;;;;;9.23;2.80;;;;;;;18.77;71.68;101980.70;1771693;80;21070;-92
2022/10/18 09:51:36;;;;;;;9.68;2.67;;;;;;;18.81;71.50;101970.13;1752476;80;21563;-92
2022/10/18 09:54:17;;;;;;;9.57;2.60;;;;;;;18.88;71.43;101961.73;1763891;80;21833;-92
2022/10/18 09:57:24;;;;;;;8.03;2.58;;;;;;;18.94;71.29;101959.56;1767749;80;21058;-91
2022/10/18 09:59:51;;;;;;;8.60;2.90;;;;;;;18.92;70.84;101960.00;1755880;80;21032;-90
2022/10/18 10:02:22;;;;;;;7.28;2.77;;;;;;;18.83;70.49;101959.03;1749256;80;21059;-91
2022/10/18 10:04:50;;;;;;;8.78;2.75;;;;;;;18.74;70.46;101958.02;1755113;80;21319;-91
2022/10/18 10:07:24;;;;;;;7.75;2.60;;;;;;;18.69;70.29;101961.06;1771223;80;21724;-92
2022/10/18 10:10:00;;;;;;;10.53;2.45;;;;;;;18.63;70.24;101976.11;1765400;80;21022;-91
2022/10/18 10:12:31;;;;;;;8.33;2.22;;;;;;;18.62;70.04;101973.01;1778490;80;21035;-91
2022/10/18 10:15:07;;;;;;;7.25;2.20;;;;;;;18.63;69.41;101965.45;1761413;80;21848;-92
2022/10/18 10:17:34;;;;;;;6.15;2.20;;;;;;;18.56;68.67;101961.36;1734510;81;21614;-86
2022/10/18 10:20:26;;;;;;;6.28;2.10;;;;;;;18.48;68.60;101965.28;1749689;82;21830;-86
2022/10/18 10:23:12;;;;;;;6.42;1.85;;;;;;;18.40;68.13;101959.86;1748747;81;21468;-86
2022/10/18 10:25:39;;;;;;;5.78;1.85;;;;;;;18.33;68.16;101960.66;1747905;82;21047;-85
2022/10/18 10:28:17;;;;;;;9.38;2.15;;;;;;;18.37;67.79;101958.92;1691318;82;21055;-86
2022/10/18 10:30:44;;;;;;;7.78;2.00;;;;;;;18.43;67.82;101964.32;1749338;80;21924;-86
2022/10/18 10:33:37;;;;;;;6.85;2.12;;;;;;;18.54;67.38;101960.45;1774706;80;21748;-86
2022/10/18 10:36:08;;;;;;;6.72;2.47;;;;;;;18.63;66.72;101965.89;1721227;82;22299;-86
2022/10/18 10:38:39;;;;;;;7.17;2.20;;;;;;;18.71;66.60;101957.97;1730023;81;21059;-86
2022/10/18 10:41:12;;;;;;;4.78;1.67;;;;;;;18.79;66.23;101966.97;1766316;81;21063;-86
2022/10/18 10:43:39;;;;;;;4.23;1.87;;;;;;;18.89;66.44;101966.66;1733024;82;21723;-86
2022/10/18 10:46:10;;;;;;;7.65;2.15;;;;;;;19.02;66.35;101963.23;1705511;84;21777;-85
2022/10/18 10:48:58;;;;;;;10.03;2.12;;;;;;;19.11;66.18;101963.31;1738325;81;21039;-86
2022/10/18 10:51:32;;;;;;;7.20;1.90;;;;;;;19.20;65.97;101961.14;1661902;83;21593;-85
2022/10/18 10:54:20;;;;;;;4.65;1.60;;;;;;;19.27;65.56;101956.77;1732943;82;21122;-86
2022/10/18 10:57:01;;;;;;;7.85;2.30;;;;;;;19.38;65.20;101945.73;1758896;81;21783;-86
2022/10/18 10:59:33;;;;;;;5.30;2.05;;;;;;;19.38;65.20;101945.73;1722701;83;21809;-86
2022/10/18 11:02:22;;;;;;;5.47;2.08;;;;;;;19.48;64.64;101954.25;1721702;83;21055;-86
2022/10/18 11:04:51;;;;;;;6.97;2.22;;;;;;;19.51;64.22;101952.06;1715270;83;21321;-92
2022/10/18 11:07:40;;;;;;;5.12;1.70;;;;;;;19.39;63.12;101928.84;1760056;81;21267;-92
2022/10/18 11:10:13;;;;;;;11.78;2.42;;;;;;;19.50;62.78;101948.51;1737161;82;21074;-91
2022/10/18 11:12:46;;;;;;;4.83;1.67;;;;;;;19.50;62.78;101948.51;1738320;81;21816;-86
2022/10/18 11:15:22;;;;;;;8.33;2.80;;;;;;;19.43;62.31;101944.00;1756555;81;21066;-91
2022/10/18 11:18:20;;;;;;;5.45;1.80;;;;;;;19.38;61.92;101936.39;1769402;80;21067;-91
2022/10/18 11:21:06;;;;;;;;;;;;;;;19.38;61.92;101936.39;1725826;81;22119;-91
2022/10/18 11:23:36;;;;;;;7.53;2.12;;;;;;;19.39;61.56;101934.19;1717603;82;20228;-86
2022/10/18 11:26:41;;;;;;;15.63;3.58;;;;;;;19.40;61.63;101926.16;1739233;82;21790;-86
2022/10/18 11:29:48;;;;;;;8.80;2.22;;;;;;;19.36;61.05;101935.03;1740428;81;21085;-86
2022/10/18 11:32:43;;;;;;;10.63;2.50;;;;;;;19.28;60.72;101953.23;1769229;81;21044;-86
2022/10/18 11:35:37;;;;;;;8.50;1.90;;;;;;;18.92;60.12;101915.97;1753482;81;21666;-91
2022/10/18 11:38:30;;;;;;;6.00;1.75;;;;;;;18.92;60.12;101915.97;1738257;82;21061;-86
2022/10/18 11:41:31;;;;;;;11.83;2.45;;;;;;;18.93;60.24;101933.78;1761199;81;21728;-86
2022/10/18 11:44:05;;;;;;;45.50;5.30;;;;;;;18.86;60.31;101933.27;1769261;81;21082;-92
2022/10/18 11:47:06;;;;;;;7.30;2.00;;;;;;;18.79;60.45;101915.84;1737676;81;21858;-92
2022/10/18 11:50:03;;;;;;;5.22;2.20;;;;;;;18.77;60.26;101908.69;1759752;81;21117;-91
2022/10/18 11:52:58;;;;;;;8.98;2.30;;;;;;;18.67;60.35;101910.38;1760574;80;21035;-91